createdAt,value
2019-02-21T00:02:24.183Z,7.29
2019-02-21T00:07:21.270Z,7.28
2019-02-21T00:12:18.403Z,7.29
2019-02-21T00:17:17.226Z,7.28
2019-02-21T00:22:14.296Z,7.28
2019-02-21T00:27:11.259Z,7.19
2019-02-21T00:32:08.483Z,7.34
2019-02-21T00:37:05.520Z,7.29
2019-02-21T00:42:03.451Z,7.17
2019-02-21T00:47:00.604Z,7.40
2019-02-21T00:51:58.697Z,7.34
2019-02-21T00:56:56.807Z,7.21
2019-02-21T01:01:53.859Z,7.37
2019-02-21T01:06:51.070Z,7.23
2019-02-21T01:11:48.135Z,7.32
2019-02-21T01:16:45.237Z,7.23
2019-02-21T01:21:42.151Z,7.14
2019-02-21T01:26:39.214Z,7.25
2019-02-21T01:31:36.279Z,7.19
2019-02-21T01:36:35.814Z,7.21
2019-02-21T01:41:32.851Z,7.17
2019-02-21T01:46:29.877Z,7.27
2019-02-21T01:51:26.814Z,7.12
2019-02-21T01:56:23.979Z,7.21
2019-02-21T02:01:20.927Z,7.16
2019-02-21T02:06:18.029Z,7.27
2019-02-21T02:11:15.108Z,7.24
2019-02-21T02:16:12.128Z,7.07
2019-02-21T02:21:11.288Z,7.25
2019-02-21T02:26:10.311Z,7.16
2019-02-21T02:31:07.268Z,7.16
2019-02-21T02:36:04.291Z,7.15
2019-02-21T02:41:01.330Z,7.10
2019-02-21T02:45:58.464Z,7.16
2019-02-21T02:50:55.501Z,7.18
2019-02-21T02:55:54.528Z,7.29
2019-02-21T03:00:51.541Z,7.13
2019-02-21T03:05:48.526Z,7.15
2019-02-21T03:10:45.608Z,7.24
2019-02-21T03:15:42.620Z,7.21
2019-02-21T03:20:39.629Z,7.23
2019-02-21T03:25:36.921Z,7.12
2019-02-21T03:30:34.096Z,7.23
2019-02-21T03:35:33.040Z,7.14
2019-02-21T03:40:31.169Z,7.14
2019-02-21T03:45:28.373Z,7.13
2019-02-21T03:50:25.440Z,7.15
2019-02-21T03:55:22.544Z,7.17
2019-02-21T04:00:21.016Z,7.00
2019-02-21T04:05:20.671Z,7.03
2019-02-21T04:10:17.799Z,7.10
2019-02-21T04:15:14.795Z,7.11
2019-02-21T04:20:11.724Z,7.01
2019-02-21T04:25:08.794Z,7.04
2019-02-21T04:30:06.602Z,7.01
2019-02-21T04:35:04.415Z,6.90
2019-02-21T04:40:01.485Z,6.88
2019-02-21T04:44:58.549Z,6.88
2019-02-21T04:49:55.558Z,6.98
2019-02-21T04:54:52.724Z,6.76
2019-02-21T04:59:51.685Z,6.99
2019-02-21T05:04:48.814Z,7.01
2019-02-21T05:09:56.965Z,6.89
2019-02-21T05:14:44.857Z,7.05
2019-02-21T05:19:41.901Z,6.99
2019-02-21T05:24:38.969Z,6.91
2019-02-21T05:29:36.024Z,6.88
2019-02-21T05:34:43.624Z,6.94
2019-02-21T05:39:43.230Z,7.03
2019-02-21T05:45:00.902Z,6.84
2019-02-21T05:50:00.832Z,6.90
2019-02-21T05:55:02.825Z,6.89
2019-02-21T06:00:13.517Z,7.05
2019-02-21T06:05:19.547Z,6.98
2019-02-21T06:10:20.473Z,7.06
2019-02-21T06:15:29.951Z,7.12
2019-02-21T06:20:28.913Z,7.14
2019-02-21T06:25:30.064Z,7.19
2019-02-21T06:30:31.559Z,7.20
2019-02-21T06:35:28.541Z,7.41
2019-02-21T06:40:25.570Z,7.47
2019-02-21T06:45:24.450Z,7.38
2019-02-21T06:50:26.738Z,7.57
2019-02-21T06:55:20.727Z,7.61
2019-02-21T07:00:19.905Z,7.76
2019-02-21T07:05:19.657Z,7.84
2019-02-21T07:10:16.716Z,7.85
2019-02-21T07:15:15.118Z,8.01
2019-02-21T07:20:14.197Z,8.17
2019-02-21T07:25:22.119Z,8.28
2019-02-21T07:30:23.058Z,8.24
2019-02-21T07:35:20.186Z,8.35
2019-02-21T07:40:20.163Z,8.54
2019-02-21T07:45:16.612Z,8.89
2019-02-21T07:50:13.724Z,8.95
2019-02-21T07:55:13.249Z,8.90
2019-02-21T08:00:11.878Z,9.08
2019-02-21T08:05:10.190Z,9.14
2019-02-21T08:10:10.624Z,9.09
2019-02-21T08:15:11.988Z,9.08
2019-02-21T08:20:11.245Z,8.93
2019-02-21T08:25:11.926Z,9.09
2019-02-21T08:30:13.603Z,8.91
2019-02-21T08:35:10.627Z,8.72
2019-02-21T08:40:07.668Z,8.92
2019-02-21T08:45:10.587Z,8.74
2019-02-21T08:50:07.742Z,8.88
2019-02-21T08:55:05.244Z,8.97
2019-02-21T09:00:05.457Z,8.87
2019-02-21T09:05:03.075Z,8.94
2019-02-21T09:10:01.201Z,8.66
2019-02-21T09:15:01.000Z,8.24
2019-02-21T09:20:02.045Z,8.43
2019-02-21T09:25:02.635Z,8.36
2019-02-21T09:29:58.923Z,8.00
2019-02-21T09:34:58.820Z,8.12
2019-02-21T09:40:01.377Z,8.09
2019-02-21T09:44:57.769Z,8.06
2019-02-21T09:49:56.498Z,7.88
2019-02-21T09:54:57.932Z,7.97
2019-02-21T09:59:57.870Z,7.97
2019-02-21T10:05:04.576Z,8.24
2019-02-21T10:09:54.000Z,8.12
2019-02-21T10:14:51.140Z,8.33
2019-02-21T10:19:48.213Z,8.09
2019-02-21T10:24:45.335Z,8.19
2019-02-21T10:29:42.393Z,8.32
2019-02-21T10:34:43.377Z,8.33
2019-02-21T10:39:44.158Z,8.64
2019-02-21T10:44:41.283Z,8.65
2019-02-21T10:49:41.793Z,8.76
2019-02-21T10:54:38.715Z,8.93
2019-02-21T10:59:46.629Z,9.06
2019-02-21T11:04:38.131Z,9.46
2019-02-21T11:09:37.147Z,9.68
2019-02-21T11:14:47.283Z,9.82
2019-02-21T11:19:36.217Z,9.93
2019-02-21T11:24:33.343Z,9.92
2019-02-21T11:29:30.540Z,9.83
2019-02-21T11:34:27.564Z,9.90
2019-02-21T11:39:24.714Z,9.84
2019-02-21T11:44:23.844Z,9.92
2019-02-21T11:49:20.946Z,9.78
2019-02-21T11:54:26.523Z,9.75
2019-02-21T11:59:17.249Z,10.08
2019-02-21T12:04:14.412Z,9.99
2019-02-21T12:09:12.525Z,10.44
2019-02-21T12:14:11.688Z,10.29
2019-02-21T12:19:08.794Z,10.39
2019-02-21T12:24:08.859Z,10.25
2019-02-21T12:29:07.795Z,10.34
2019-02-21T12:34:04.810Z,10.25
2019-02-21T12:39:01.973Z,10.24
2019-02-21T12:43:58.934Z,10.23
2019-02-21T12:48:56.118Z,10.31
2019-02-21T12:53:54.251Z,10.22
2019-02-21T12:58:51.430Z,10.42
2019-02-21T13:03:48.500Z,10.48
2019-02-21T13:08:47.533Z,10.37
2019-02-21T13:13:44.536Z,10.39
2019-02-21T13:18:46.517Z,10.40
2019-02-21T13:23:45.473Z,10.18
2019-02-21T13:28:43.059Z,10.18
2019-02-21T13:33:40.100Z,10.10
2019-02-21T13:38:37.335Z,10.07
2019-02-21T13:43:34.373Z,9.99
2019-02-21T13:48:31.521Z,10.02
2019-02-21T13:53:28.509Z,10.00
2019-02-21T13:58:27.574Z,9.85
2019-02-21T14:03:24.867Z,9.91
2019-02-21T14:08:23.355Z,9.84
2019-02-21T14:13:20.566Z,9.96
2019-02-21T14:18:18.023Z,9.92
2019-02-21T14:23:15.171Z,10.02
2019-02-21T14:28:12.637Z,9.90
2019-02-21T14:33:09.753Z,10.08
2019-02-21T14:38:10.062Z,9.97
2019-02-21T14:43:07.186Z,9.84
2019-02-21T14:48:04.219Z,9.89
2019-02-21T14:53:01.258Z,9.93
2019-02-21T14:57:58.498Z,9.86
2019-02-21T15:02:57.639Z,9.81
2019-02-21T15:08:04.415Z,9.68
2019-02-21T15:13:00.671Z,9.92
2019-02-21T15:18:06.840Z,9.71
2019-02-21T15:22:56.868Z,9.59
2019-02-21T15:27:55.845Z,9.50
2019-02-21T15:32:52.820Z,9.67
2019-02-21T15:37:50.079Z,9.55
2019-02-21T15:42:47.185Z,9.55
2019-02-21T15:47:48.165Z,9.56
2019-02-21T15:52:46.116Z,9.45
2019-02-21T15:57:44.148Z,9.33
2019-02-21T16:02:41.206Z,9.34
2019-02-21T16:07:38.324Z,9.15
2019-02-21T16:12:35.371Z,9.11
2019-02-21T16:17:37.273Z,9.15
2019-02-21T16:22:33.350Z,8.98
2019-02-21T16:27:30.458Z,8.93
2019-02-21T16:32:27.711Z,8.89
2019-02-21T16:37:24.829Z,8.93
2019-02-21T16:42:24.649Z,8.81
2019-02-21T16:47:21.769Z,8.82
2019-02-21T16:52:18.850Z,8.95
2019-02-21T16:57:16.031Z,8.81
2019-02-21T17:02:13.126Z,8.84
2019-02-21T17:07:13.724Z,8.78
2019-02-21T17:12:09.617Z,8.88
2019-02-21T17:17:06.717Z,8.65
2019-02-21T17:22:06.479Z,8.71
2019-02-21T17:27:03.556Z,8.62
2019-02-21T17:32:00.932Z,8.64
2019-02-21T17:36:58.087Z,8.36
2019-02-21T17:41:55.174Z,8.38
2019-02-21T17:46:52.260Z,8.56
2019-02-21T17:51:49.212Z,8.45
2019-02-21T17:56:46.786Z,8.35
2019-02-21T18:01:43.821Z,8.36
2019-02-21T18:06:40.902Z,8.40
2019-02-21T18:11:37.915Z,8.30
2019-02-21T18:16:35.484Z,8.40
2019-02-21T18:21:32.525Z,8.19
2019-02-21T18:26:31.802Z,8.32
2019-02-21T18:31:28.506Z,8.21
2019-02-21T18:36:25.599Z,8.17
2019-02-21T18:41:22.650Z,8.14
2019-02-21T18:46:19.684Z,7.87
2019-02-21T18:51:18.859Z,7.92
2019-02-21T18:56:16.159Z,7.85
2019-02-21T19:01:24.039Z,7.71
2019-02-21T19:06:29.722Z,7.59
2019-02-21T19:11:31.203Z,7.40
2019-02-21T19:16:32.453Z,7.49
2019-02-21T19:21:38.479Z,7.47
2019-02-21T19:26:42.268Z,7.52
2019-02-21T19:31:49.468Z,7.48
2019-02-21T19:36:50.797Z,7.45
2019-02-21T19:41:48.382Z,7.44
2019-02-21T19:46:48.621Z,7.47
2019-02-21T19:51:58.218Z,7.25
2019-02-21T19:57:02.329Z,7.33
2019-02-21T20:02:16.805Z,7.33
2019-02-21T20:07:27.544Z,7.25
2019-02-21T20:12:28.704Z,7.42
2019-02-21T20:17:34.815Z,7.27
2019-02-21T20:22:45.852Z,7.31
2019-02-21T20:33:13.398Z,7.28
2019-02-21T22:03:07.601Z,6.64
2019-02-21T22:13:53.615Z,6.62
2019-02-21T22:19:03.776Z,6.52
2019-02-21T22:24:17.472Z,6.64
2019-02-21T22:35:19.958Z,6.55
2019-02-21T22:46:32.203Z,6.75
2019-02-21T22:51:46.004Z,6.61
2019-02-21T23:14:50.857Z,6.23
2019-02-21T23:20:03.183Z,6.36
2019-02-21T23:30:46.320Z,6.00
2019-02-21T23:36:19.304Z,6.13
2019-02-21T23:47:49.407Z,6.10
2019-02-21T23:53:05.659Z,6.00
